メインページ
METAR-TAF:

METAR-TAF

空港 :

ヘルシンキ, フィンランド

ヘルシンキ・ヴァンター国際空港

緯度: 60-19N, 経度: 024-58E, 海抜: 51m

現時点の気象観測

当レポートは31分前の11:20(UTC)に作成
変向風 2kt
気温 16°C
湿度 51%
気圧 1012 hPa
視程10km以上
高度3500ftの雲はほとんどない
高度20000ftの千切れ雲あり

METAR: EFHK 241120Z VRB02KT 9999 FEW035 BKN200 16/06 Q1012 NOSIG

時間: 14:51 (11:51 UTC)

予報

当レポートは26分前の11:25(UTC)に作成
予報は24日の 12時(UTC)から 25日の 12時(UTC)まで有効
の風 8kt
視程10km以上
1,500メートル以下は雲なし、積乱雲なし
確率 30%
25日の 02時(UTC)から 25日の 04時(UTC)まで
視程: 1500m
25日の 09時(UTC)から 25日の 11時(UTC)まで徐々に
西の風 10kt

TAF: EFHK 241125Z 2412/2512 17008KT CAVOK PROB30 2502/2504 1500 BR BECMG 2509/2511 27010KT

4,000以上の空港の気象観測と天気予報(METAR報とTAF報)

利用可能な観測所は地図上に黄色い丸と赤い丸で示す。

丸の上にカーソルを重ねると観測所名を参照できる。

次にクリックすると気象観測と天気予報を参照できる。

マップの切り替え:黒色「×」印の緑ボタンをクリックして拡大、「-」印の緑ボタンをクリックして縮小、緑色の三角印をクリックして隣りの地図に切り替え


METAR-TAF: